Historyczne dane pomiarowe

Dodano dane terminowe – wersja testowa.

Dane z okresu 1951-2019

Wersja bazy: 1.34 [2019-03-16, lista zmian], aktualizacja planowana na 2019-04-15

Dane meteo z obszaru Polski uzyskane na podstawie danych udostępnionych przez Instytut Meteorologii i Gospodarki Wodnej – Państwowy Instytut Badawczy.

 

Wybierz Datę:    

       

TemperaturaWilgotnośćWiatrCiśnienieOpadyŚniegCzas trwania zjawisk
 Stacja t tx tn tng RH VA  wxwx mslp ppp RRR   cm mm wxwxwxwxwxwxwx
1982-05-15 13.5 19.2 2.4- 53.8- 0.0 2.3---- 0.0------------
1982-05-16 15.2 23.1 4.9- 55.0- 0.0 1.3---- 0.0------------
1982-05-17 18.2 25.3 6.5- 55.0- 0.0 0.7---- 0.0------------
1982-05-18 18.1 22.6 12.9- 74.3- 7.0 3.0---- 0.0------------
1982-05-19 13.7 19.4 8.1- 89.3- 8.0 0.0---- 0.0------------
1982-05-20 10.6 14.9 7.0- 81.5- 6.3 3.0---- 0.5------------
1982-05-21 12.1 16.2 7.8- 91.5- 8.0 0.0---- 0.9------------
1982-05-22 13.0 16.1 9.5- 88.3- 8.0 0.0---- 1.7------------
1982-05-23 14.1 20.2 10.9- 76.8- 7.7 0.7---- 1.8------------
1982-05-24 13.2 17.5 10.5- 83.8- 8.0 1.0---- 0.0------------
1982-05-25 13.6 18.3 8.9- 78.3- 4.7 2.0---- 0.0------------
1982-05-26 17.4 23.8 9.0- 63.3- 0.3 3.3---- 0.0------------
1982-05-27 20.4 26.7 11.7- 57.5- 0.0 3.0---- 0.0------------
1982-05-28 16.8 24.8 13.5- 70.8- 4.0 4.0---- 0.0------------
1982-05-29 12.0 15.7 8.3- 84.3- 6.3 5.0---- 0.0------------
1982-05-30 13.6 19.3 7.0- 58.5- 0.0 3.3---- 0.0------------
1982-05-31 17.1 25.4 4.2- 52.3- 0.0 0.0---- 0.0------------
1982-06-01 22.0 28.0 7.6- 44.5- 0.0 0.7---- 0.0------------
1982-06-02 21.5 30.1 7.5- 45.5- 0.0 0.0---- 0.0------------
1982-06-03 23.0 30.0 13.6- 42.3- 0.0 2.0---- 0.0------------
1982-06-04 27.4 31.0 12.3- 34.5- 0.0 1.7---- 0.0------------
1982-06-05 28.2 31.5 14.4- 45.5- 1.7 0.0---- 0.0------------
1982-06-06 19.9 28.0 15.7- 73.5- 5.3 4.0---- 0.0------------
1982-06-07 13.6 16.7 9.1- 51.8- 1.3 6.3---- 0.0------------
1982-06-08 19.0 24.0 3.0- 65.0- 3.3 5.3---- 0.0------------
1982-06-09 14.6 19.1 11.1- 65.5- 6.7 0.0---- 0.0------------
1982-06-10 13.1 16.4 6.1- 43.5- 1.3 5.7---- 0.0------------
1982-06-11 16.0 18.2 3.5- 37.0- 3.0 4.7---- 6.9------------
1982-06-12 18.9 20.6 10.0- 55.5- 5.7 7.3---- 0.0------------
1982-06-13 22.3 25.0 19.5- 88.8- 7.7 7.3---- 10.5------------
321.3 ms

 

Źródłem pochodzenia danych jest Instytut Meteorologii i Gospodarki Wodnej – Państwowy Instytut Badawczy. Dane Instytutu Meteorologii i Gospodarki Wodnej – Państwowego Instytutu Badawczego zostały przetworzone.

Dane źródłowe można odnaleźć na stronie https://dane.imgw.pl